Main page
METAR-TAF:

METAR-TAF

Airports :

El Paso International Airport

El Paso, Texas, United States

latitude: 31-48-40N, longitude: 106-22-33W, elevation: 3956 ft

Current weather observation

The report was made 1 hour and 7 minutes ago, at 01:51 UTC
Calm wind
Temperature 48°F
Humidity 31%
Pressure 30.33 in. Hg
Visibility: 10 miles
Broken clouds at a height of 25000 ft

METAR: KELP 150151Z 00000KT 10SM BKN250 09/M07 A3033 RMK AO2 SLP263 T00941072

Time: 20:58 (02:58 UTC)

Forecast

The report was made 3 hours and 22 minutes ago, at 23:36 UTC
Forecast valid from 15 at 00 UTC to 15 at 24 UTC
Wind 7 mph from the East/Southeast
Visibility: 6 miles
Broken clouds at a height of 25000 ft

TAF: KELP 142336Z 1500/1524 12006KT P6SM BKN250

Weather observations and forecasts of more than 4000 airports (METAR and TAF reports).

The available stations are represented by yellow and red dots on the map.

Hover mouse over dot to see the name of the station.

Then click to see weather observations and forecasts.

To change the map : click on the green buttons with a black cross to zoom in, on the green button with a dash to zoom out, or on the green arrows for adjacent maps.


METAR-TAF: